Las Heras, Argentina
Current Conditions -  °F | °C
As of 9:00 PM on Tuesday 21 Oct 2014 (Local Time) from SAME Reporting Station
Clear Clear  
Wind Chill: 82°   Ceiling: Unl
Heat Index: 82°   Visibility: 6mi
Dew Point: 55°   Wind: 2mph
Humidity: 39%   Direction: 70°ENE
Pressure: 29.83"   Gusts: NA
Location:  32.85°S, 68.82°W
Report Text: SAME 220000Z 07002KT CAVOK 28/13 Q1010
Loading
Personal Weather Stations






























Interactive Weather Map
Tropical Storm Tracking
New forecast layout! Learn more

10-Day Weather Forecast

Advertisements
Track Severe Weather on mobile